BOX170 EDDP-EDDF
Flight info
| Callsign | BOX170 |
|---|---|
| Flight time | 0h 39m |
| Altitude | 22000 |
| Route | ORTAG5S ORTAG T177 ODIPI/N0427F210 T157 KERAX KERAX5D |
| Aircraft | B77L/H-SDE1E2E3FGHIJ2J3J4J5M1RWXY/LB1D1 |
Departure
| Time | 2026-04-14 11:59 |
|---|---|
| Airport | Leipzig/Halle Airport (EDDP) |
Arrival
| Time | 2026-04-14 12:38 |
|---|---|
| Airport | Frankfurt Main Airport (EDDF) |
| Time | Latitude | Longitude | Altitude | Speed | Heading |
|---|---|---|---|---|---|
| 2026-04-14 11:34 | 51.41007 | 12.24978 | 475 ft | 0 kts | 265° |
| 2026-04-14 11:44 | 51.41007 | 12.24979 | 475 ft | 1 kts | 265° |
| 2026-04-14 11:45 | 51.41008 | 12.25002 | 470 ft | 3 kts | 265° |
| 2026-04-14 11:45 | 51.41010 | 12.25035 | 471 ft | 3 kts | 265° |
| 2026-04-14 11:45 | 51.41011 | 12.25056 | 469 ft | 3 kts | 265° |
| 2026-04-14 11:45 | 51.41012 | 12.25088 | 469 ft | 3 kts | 265° |
| 2026-04-14 11:46 | 51.41014 | 12.25112 | 470 ft | 3 kts | 270° |
| 2026-04-14 11:46 | 51.41011 | 12.25140 | 470 ft | 3 kts | 311° |
| 2026-04-14 11:46 | 51.40997 | 12.25153 | 470 ft | 3 kts | 356° |
| 2026-04-14 11:46 | 51.40980 | 12.25154 | 469 ft | 1 kts | 356° |
| 2026-04-14 11:47 | 51.40979 | 12.25154 | 469 ft | 0 kts | 355° |
| 2026-04-14 11:55 | 51.40981 | 12.25154 | 477 ft | 2 kts | 355° |
| 2026-04-14 11:56 | 51.41027 | 12.25148 | 473 ft | 9 kts | 355° |
| 2026-04-14 11:56 | 51.41092 | 12.25142 | 475 ft | 9 kts | 8° |
| 2026-04-14 11:56 | 51.41124 | 12.25224 | 478 ft | 9 kts | 81° |
| 2026-04-14 11:56 | 51.41131 | 12.25328 | 481 ft | 9 kts | 86° |
| 2026-04-14 11:57 | 51.41144 | 12.25428 | 476 ft | 9 kts | 54° |
| 2026-04-14 11:57 | 51.41205 | 12.25451 | 476 ft | 9 kts | 357° |
| 2026-04-14 11:57 | 51.41270 | 12.25424 | 469 ft | 10 kts | 337° |
| 2026-04-14 11:57 | 51.41331 | 12.25359 | 470 ft | 11 kts | 316° |
| 2026-04-14 11:58 | 51.41379 | 12.25271 | 469 ft | 10 kts | 294° |
| 2026-04-14 11:58 | 51.41380 | 12.25143 | 474 ft | 18 kts | 265° |
| 2026-04-14 11:58 | 51.41359 | 12.24701 | 472 ft | 68 kts | 265° |
| 2026-04-14 11:58 | 51.41309 | 12.23629 | 472 ft | 123 kts | 266° |
| 2026-04-14 11:59 | 51.41230 | 12.22005 | 464 ft | 167 kts | 265° |
| 2026-04-14 11:59 | 51.41154 | 12.20153 | 922 ft | 166 kts | 268° |
| 2026-04-14 11:59 | 51.41084 | 12.18258 | 1445 ft | 174 kts | 269° |
| 2026-04-14 11:59 | 51.41013 | 12.16279 | 2187 ft | 181 kts | 269° |
| 2026-04-14 12:00 | 51.40921 | 12.14225 | 2890 ft | 193 kts | 267° |
| 2026-04-14 12:00 | 51.40797 | 12.11982 | 3520 ft | 211 kts | 267° |
| 2026-04-14 12:00 | 51.40643 | 12.09611 | 4403 ft | 214 kts | 266° |
| 2026-04-14 12:00 | 51.40533 | 12.07189 | 5083 ft | 225 kts | 268° |
| 2026-04-14 12:01 | 51.40435 | 12.04568 | 5438 ft | 247 kts | 266° |
| 2026-04-14 12:01 | 51.40282 | 12.01915 | 6446 ft | 236 kts | 264° |
| 2026-04-14 12:01 | 51.40148 | 11.99236 | 7012 ft | 250 kts | 266° |
| 2026-04-14 12:01 | 51.40058 | 11.96363 | 7410 ft | 265 kts | 266° |
| 2026-04-14 12:02 | 51.39940 | 11.93377 | 7466 ft | 273 kts | 265° |
| 2026-04-14 12:02 | 51.39760 | 11.90342 | 7311 ft | 273 kts | 264° |
| 2026-04-14 12:02 | 51.39581 | 11.87366 | 7334 ft | 264 kts | 264° |
| 2026-04-14 12:02 | 51.39420 | 11.84432 | 7649 ft | 265 kts | 265° |
| 2026-04-14 12:03 | 51.39267 | 11.81498 | 8348 ft | 270 kts | 265° |
| 2026-04-14 12:03 | 51.39100 | 11.78496 | 9087 ft | 271 kts | 260° |
| 2026-04-14 12:03 | 51.38417 | 11.75695 | 9620 ft | 274 kts | 237° |
| 2026-04-14 12:03 | 51.37329 | 11.73135 | 10231 ft | 280 kts | 236° |
| 2026-04-14 12:04 | 51.36217 | 11.70497 | 10687 ft | 296 kts | 236° |
| 2026-04-14 12:04 | 51.35028 | 11.67645 | 10862 ft | 321 kts | 237° |
| 2026-04-14 12:04 | 51.33751 | 11.64550 | 11057 ft | 345 kts | 237° |
| 2026-04-14 12:04 | 51.32404 | 11.61263 | 11543 ft | 359 kts | 237° |
| 2026-04-14 12:05 | 51.31023 | 11.57872 | 12331 ft | 367 kts | 237° |
| 2026-04-14 12:05 | 51.29626 | 11.54433 | 13331 ft | 371 kts | 237° |
| 2026-04-14 12:05 | 51.28238 | 11.51006 | 14318 ft | 375 kts | 237° |
| 2026-04-14 12:05 | 51.26815 | 11.47489 | 15219 ft | 379 kts | 237° |
| 2026-04-14 12:06 | 51.25378 | 11.43937 | 16041 ft | 383 kts | 237° |
| 2026-04-14 12:06 | 51.23922 | 11.40341 | 16809 ft | 388 kts | 237° |
| 2026-04-14 12:06 | 51.22443 | 11.36695 | 17606 ft | 394 kts | 237° |
| 2026-04-14 12:06 | 51.20948 | 11.33011 | 18428 ft | 398 kts | 237° |
| 2026-04-14 12:07 | 51.19430 | 11.29279 | 19123 ft | 403 kts | 237° |
| 2026-04-14 12:07 | 51.17897 | 11.25511 | 19801 ft | 407 kts | 237° |
| 2026-04-14 12:07 | 51.16368 | 11.21762 | 20443 ft | 411 kts | 237° |
| 2026-04-14 12:07 | 51.14801 | 11.17923 | 21102 ft | 416 kts | 237° |
| 2026-04-14 12:08 | 51.13214 | 11.14043 | 21740 ft | 420 kts | 237° |
| 2026-04-14 12:08 | 51.11607 | 11.10118 | 22196 ft | 427 kts | 237° |
| 2026-04-14 12:08 | 51.09962 | 11.06107 | 22168 ft | 437 kts | 237° |
| 2026-04-14 12:08 | 51.08297 | 11.02054 | 22163 ft | 438 kts | 237° |
| 2026-04-14 12:09 | 51.06630 | 10.98002 | 22150 ft | 437 kts | 237° |
| 2026-04-14 12:09 | 51.04968 | 10.93971 | 22146 ft | 435 kts | 237° |
| 2026-04-14 12:09 | 51.03313 | 10.89959 | 22166 ft | 434 kts | 237° |
| 2026-04-14 12:09 | 51.01680 | 10.86009 | 22167 ft | 433 kts | 237° |
| 2026-04-14 12:10 | 51.00026 | 10.82014 | 22155 ft | 432 kts | 237° |
| 2026-04-14 12:10 | 50.98373 | 10.78028 | 22156 ft | 432 kts | 237° |
| 2026-04-14 12:10 | 50.96722 | 10.74052 | 22159 ft | 431 kts | 237° |
| 2026-04-14 12:10 | 50.95073 | 10.70086 | 22161 ft | 431 kts | 237° |
| 2026-04-14 12:11 | 50.93422 | 10.66122 | 22162 ft | 431 kts | 237° |
| 2026-04-14 12:11 | 50.91768 | 10.62158 | 22164 ft | 431 kts | 236° |
| 2026-04-14 12:11 | 50.90112 | 10.58197 | 22162 ft | 431 kts | 236° |
| 2026-04-14 12:11 | 50.88452 | 10.54235 | 22164 ft | 432 kts | 236° |
| 2026-04-14 12:12 | 50.86812 | 10.50325 | 22165 ft | 432 kts | 236° |
| 2026-04-14 12:12 | 50.85145 | 10.46356 | 22155 ft | 433 kts | 236° |
| 2026-04-14 12:12 | 50.83478 | 10.42391 | 22170 ft | 433 kts | 236° |
| 2026-04-14 12:12 | 50.81807 | 10.38421 | 22169 ft | 434 kts | 236° |
| 2026-04-14 12:13 | 50.80134 | 10.34452 | 22181 ft | 434 kts | 236° |
| 2026-04-14 12:13 | 50.78459 | 10.30484 | 22171 ft | 434 kts | 236° |
| 2026-04-14 12:13 | 50.76784 | 10.26524 | 22156 ft | 433 kts | 236° |
| 2026-04-14 12:13 | 50.75112 | 10.22575 | 22172 ft | 432 kts | 236° |
| 2026-04-14 12:14 | 50.73443 | 10.18639 | 22172 ft | 431 kts | 236° |
| 2026-04-14 12:14 | 50.71794 | 10.14757 | 22165 ft | 431 kts | 236° |
| 2026-04-14 12:14 | 50.70126 | 10.10834 | 22172 ft | 431 kts | 236° |
| 2026-04-14 12:14 | 50.68455 | 10.06913 | 22175 ft | 430 kts | 236° |
| 2026-04-14 12:15 | 50.66787 | 10.03002 | 22176 ft | 430 kts | 236° |
| 2026-04-14 12:15 | 50.65115 | 9.99089 | 22174 ft | 430 kts | 236° |
| 2026-04-14 12:15 | 50.63442 | 9.95180 | 22174 ft | 430 kts | 236° |
| 2026-04-14 12:15 | 50.61767 | 9.91270 | 22180 ft | 430 kts | 236° |
| 2026-04-14 12:16 | 50.60091 | 9.87365 | 22176 ft | 431 kts | 236° |
| 2026-04-14 12:16 | 50.58413 | 9.83459 | 22179 ft | 431 kts | 236° |
| 2026-04-14 12:16 | 50.56757 | 9.79613 | 22187 ft | 431 kts | 236° |
| 2026-04-14 12:16 | 50.55076 | 9.75713 | 22178 ft | 431 kts | 236° |
| 2026-04-14 12:17 | 50.53394 | 9.71815 | 22172 ft | 431 kts | 236° |
| 2026-04-14 12:17 | 50.51713 | 9.67924 | 22173 ft | 430 kts | 236° |
| 2026-04-14 12:17 | 50.50030 | 9.64035 | 22169 ft | 429 kts | 236° |
| 2026-04-14 12:17 | 50.48370 | 9.60206 | 22154 ft | 418 kts | 236° |
| 2026-04-14 12:18 | 50.46995 | 9.56288 | 22094 ft | 403 kts | 250° |
| 2026-04-14 12:18 | 50.46263 | 9.52130 | 21835 ft | 391 kts | 255° |
| 2026-04-14 12:18 | 50.45565 | 9.48039 | 21403 ft | 386 kts | 253° |
| 2026-04-14 12:18 | 50.44834 | 9.44052 | 20951 ft | 384 kts | 253° |
| 2026-04-14 12:19 | 50.44075 | 9.40031 | 20452 ft | 386 kts | 253° |
| 2026-04-14 12:19 | 50.43299 | 9.35956 | 19976 ft | 394 kts | 253° |
| 2026-04-14 12:19 | 50.42509 | 9.31812 | 19460 ft | 398 kts | 253° |
| 2026-04-14 12:19 | 50.41632 | 9.27748 | 18931 ft | 390 kts | 244° |
| 2026-04-14 12:20 | 50.40100 | 9.24273 | 18423 ft | 389 kts | 227° |
| 2026-04-14 12:20 | 50.38006 | 9.21617 | 17871 ft | 388 kts | 213° |
| 2026-04-14 12:20 | 50.35695 | 9.19470 | 17362 ft | 385 kts | 211° |
| 2026-04-14 12:20 | 50.33405 | 9.17339 | 16852 ft | 382 kts | 212° |
| 2026-04-14 12:21 | 50.31146 | 9.15185 | 16356 ft | 379 kts | 213° |
| 2026-04-14 12:21 | 50.28952 | 9.13042 | 15845 ft | 371 kts | 216° |
| 2026-04-14 12:21 | 50.27126 | 9.10273 | 15380 ft | 365 kts | 235° |
| 2026-04-14 12:21 | 50.25971 | 9.06788 | 14933 ft | 359 kts | 249° |
| 2026-04-14 12:22 | 50.25134 | 9.03137 | 14470 ft | 356 kts | 250° |
| 2026-04-14 12:22 | 50.24310 | 8.99510 | 14017 ft | 354 kts | 250° |
| 2026-04-14 12:22 | 50.23485 | 8.95897 | 13500 ft | 352 kts | 250° |
| 2026-04-14 12:22 | 50.22662 | 8.92318 | 13019 ft | 349 kts | 250° |
| 2026-04-14 12:23 | 50.21839 | 8.88767 | 12555 ft | 346 kts | 250° |
| 2026-04-14 12:23 | 50.21015 | 8.85235 | 11963 ft | 347 kts | 250° |
| 2026-04-14 12:23 | 50.20186 | 8.81707 | 11503 ft | 345 kts | 250° |
| 2026-04-14 12:23 | 50.19372 | 8.78254 | 11053 ft | 343 kts | 249° |
| 2026-04-14 12:24 | 50.18562 | 8.74825 | 10894 ft | 331 kts | 249° |
| 2026-04-14 12:24 | 50.17779 | 8.71517 | 10740 ft | 320 kts | 249° |
| 2026-04-14 12:24 | 50.17022 | 8.68320 | 10597 ft | 309 kts | 249° |
| 2026-04-14 12:24 | 50.16292 | 8.65239 | 10468 ft | 297 kts | 249° |
| 2026-04-14 12:25 | 50.15587 | 8.62272 | 10357 ft | 287 kts | 249° |
| 2026-04-14 12:25 | 50.14905 | 8.59411 | 10219 ft | 276 kts | 249° |
| 2026-04-14 12:25 | 50.14251 | 8.56666 | 10114 ft | 264 kts | 249° |
| 2026-04-14 12:25 | 50.13626 | 8.54039 | 9989 ft | 253 kts | 249° |
| 2026-04-14 12:26 | 50.13010 | 8.51464 | 9724 ft | 256 kts | 250° |
| 2026-04-14 12:26 | 50.12376 | 8.48813 | 9444 ft | 266 kts | 250° |
| 2026-04-14 12:26 | 50.11732 | 8.46127 | 9129 ft | 269 kts | 250° |
| 2026-04-14 12:26 | 50.11078 | 8.43405 | 8787 ft | 266 kts | 250° |
| 2026-04-14 12:27 | 50.10430 | 8.40725 | 8481 ft | 262 kts | 251° |
| 2026-04-14 12:27 | 50.09794 | 8.38095 | 8177 ft | 257 kts | 251° |
| 2026-04-14 12:27 | 50.09164 | 8.35495 | 7871 ft | 257 kts | 250° |
| 2026-04-14 12:27 | 50.08527 | 8.32860 | 7584 ft | 264 kts | 252° |
| 2026-04-14 12:28 | 50.07876 | 8.30172 | 7215 ft | 268 kts | 251° |
| 2026-04-14 12:28 | 50.07221 | 8.27463 | 6698 ft | 265 kts | 251° |
| 2026-04-14 12:28 | 50.06581 | 8.24842 | 6170 ft | 259 kts | 252° |
| 2026-04-14 12:28 | 50.05951 | 8.22254 | 5680 ft | 252 kts | 251° |
| 2026-04-14 12:29 | 50.05341 | 8.19752 | 5417 ft | 244 kts | 251° |
| 2026-04-14 12:29 | 50.04712 | 8.17305 | 5144 ft | 244 kts | 250° |
| 2026-04-14 12:29 | 50.04073 | 8.14887 | 5077 ft | 243 kts | 249° |
| 2026-04-14 12:29 | 50.03425 | 8.12443 | 5008 ft | 246 kts | 250° |
| 2026-04-14 12:30 | 50.02704 | 8.10046 | 4685 ft | 242 kts | 235° |
| 2026-04-14 12:30 | 50.01449 | 8.08407 | 4360 ft | 235 kts | 201° |
| 2026-04-14 12:30 | 49.99890 | 8.08081 | 4095 ft | 222 kts | 168° |
| 2026-04-14 12:30 | 49.98451 | 8.08726 | 4059 ft | 218 kts | 159° |
| 2026-04-14 12:31 | 49.97048 | 8.09555 | 4060 ft | 212 kts | 153° |
| 2026-04-14 12:31 | 49.95906 | 8.10875 | 4035 ft | 199 kts | 133° |
| 2026-04-14 12:31 | 49.94916 | 8.12383 | 3989 ft | 197 kts | 134° |
| 2026-04-14 12:31 | 49.94079 | 8.13953 | 3984 ft | 183 kts | 110° |
| 2026-04-14 12:32 | 49.94013 | 8.15818 | 3995 ft | 172 kts | 73° |
| 2026-04-14 12:32 | 49.94324 | 8.17639 | 4014 ft | 178 kts | 72° |
| 2026-04-14 12:32 | 49.94678 | 8.19486 | 3997 ft | 176 kts | 70° |
| 2026-04-14 12:32 | 49.95063 | 8.21225 | 3996 ft | 171 kts | 67° |
| 2026-04-14 12:33 | 49.95466 | 8.22976 | 4001 ft | 173 kts | 67° |
| 2026-04-14 12:33 | 49.95889 | 8.24758 | 4001 ft | 173 kts | 67° |
| 2026-04-14 12:33 | 49.96301 | 8.26488 | 3988 ft | 173 kts | 66° |
| 2026-04-14 12:33 | 49.96730 | 8.28268 | 3746 ft | 176 kts | 66° |
| 2026-04-14 12:34 | 49.97151 | 8.30024 | 3525 ft | 172 kts | 67° |
| 2026-04-14 12:34 | 49.97565 | 8.31753 | 3287 ft | 171 kts | 68° |
| 2026-04-14 12:34 | 49.97980 | 8.33488 | 3078 ft | 170 kts | 66° |
| 2026-04-14 12:34 | 49.98392 | 8.35206 | 2835 ft | 170 kts | 67° |
| 2026-04-14 12:35 | 49.98805 | 8.36931 | 2604 ft | 171 kts | 67° |
| 2026-04-14 12:35 | 49.99223 | 8.38660 | 2382 ft | 171 kts | 64° |
| 2026-04-14 12:35 | 49.99661 | 8.40368 | 2195 ft | 170 kts | 65° |
| 2026-04-14 12:35 | 50.00099 | 8.42032 | 1930 ft | 166 kts | 68° |
| 2026-04-14 12:36 | 50.00456 | 8.43670 | 1697 ft | 158 kts | 69° |
| 2026-04-14 12:36 | 50.00795 | 8.45293 | 1455 ft | 155 kts | 67° |
| 2026-04-14 12:36 | 50.01176 | 8.46828 | 1224 ft | 153 kts | 67° |
| 2026-04-14 12:36 | 50.01536 | 8.48366 | 963 ft | 151 kts | 68° |
| 2026-04-14 12:37 | 50.01900 | 8.49890 | 780 ft | 150 kts | 66° |
| 2026-04-14 12:37 | 50.02264 | 8.51406 | 628 ft | 150 kts | 66° |
| 2026-04-14 12:37 | 50.02633 | 8.52918 | 455 ft | 150 kts | 63° |
| 2026-04-14 12:37 | 50.03001 | 8.54442 | 338 ft | 141 kts | 63° |
| 2026-04-14 12:38 | 50.03483 | 8.56460 | 362 ft | 56 kts | 70° |
| 2026-04-14 12:38 | 50.03588 | 8.56881 | 359 ft | 35 kts | 62° |
| 2026-04-14 12:38 | 50.03734 | 8.57124 | 368 ft | 28 kts | 39° |
| 2026-04-14 12:39 | 50.03821 | 8.57238 | 371 ft | 5 kts | 40° |
| 2026-04-14 12:39 | 50.03833 | 8.57253 | 368 ft | 2 kts | 40° |
| 2026-04-14 12:39 | 50.03854 | 8.57280 | 372 ft | 7 kts | 39° |
| 2026-04-14 12:39 | 50.03914 | 8.57354 | 373 ft | 13 kts | 40° |
| 2026-04-14 12:40 | 50.03967 | 8.57466 | 374 ft | 13 kts | 66° |
| 2026-04-14 12:40 | 50.04000 | 8.57597 | 371 ft | 13 kts | 72° |
| 2026-04-14 12:40 | 50.04031 | 8.57729 | 376 ft | 13 kts | 68° |
| 2026-04-14 12:40 | 50.04064 | 8.57861 | 372 ft | 13 kts | 69° |
| 2026-04-14 12:41 | 50.04095 | 8.57990 | 375 ft | 13 kts | 69° |
| 2026-04-14 12:41 | 50.04131 | 8.58119 | 375 ft | 13 kts | 56° |
| 2026-04-14 12:41 | 50.04196 | 8.58183 | 374 ft | 8 kts | 21° |
| 2026-04-14 12:41 | 50.04208 | 8.58189 | 375 ft | 0 kts | 19° |
| 2026-04-14 12:42 | 50.04208 | 8.58190 | 375 ft | 3 kts | 19° |
| 2026-04-14 12:42 | 50.04307 | 8.58244 | 374 ft | 27 kts | 19° |
| 2026-04-14 12:42 | 50.04462 | 8.58245 | 374 ft | 16 kts | 356° |
| 2026-04-14 12:43 | 50.04540 | 8.58211 | 375 ft | 7 kts | 340° |
| 2026-04-14 12:43 | 50.04550 | 8.58204 | 374 ft | 1 kts | 337° |
| 2026-04-14 12:43 | 50.04563 | 8.58188 | 374 ft | 4 kts | 312° |
| 2026-04-14 12:43 | 50.04565 | 8.58127 | 371 ft | 7 kts | 260° |
| 2026-04-14 12:44 | 50.04580 | 8.58036 | 369 ft | 13 kts | 322° |
| 2026-04-14 12:44 | 50.04674 | 8.57979 | 371 ft | 15 kts | 338° |
| 2026-04-14 12:44 | 50.04696 | 8.57839 | 367 ft | 15 kts | 246° |
| 2026-04-14 12:45 | 50.04619 | 8.57530 | 364 ft | 15 kts | 250° |
| 2026-04-14 12:45 | 50.04583 | 8.57372 | 367 ft | 16 kts | 251° |
| 2026-04-14 12:45 | 50.04545 | 8.57213 | 368 ft | 16 kts | 249° |
| 2026-04-14 12:45 | 50.04507 | 8.57055 | 368 ft | 16 kts | 250° |
| 2026-04-14 12:46 | 50.04469 | 8.56898 | 369 ft | 16 kts | 248° |
| 2026-04-14 12:46 | 50.04431 | 8.56742 | 367 ft | 16 kts | 250° |
| 2026-04-14 12:46 | 50.04394 | 8.56581 | 366 ft | 16 kts | 250° |
| 2026-04-14 12:46 | 50.04354 | 8.56406 | 364 ft | 18 kts | 249° |
| 2026-04-14 12:47 | 50.04307 | 8.56222 | 367 ft | 19 kts | 249° |
| 2026-04-14 12:47 | 50.04260 | 8.56023 | 365 ft | 20 kts | 250° |
| 2026-04-14 12:47 | 50.04210 | 8.55811 | 360 ft | 21 kts | 249° |
| 2026-04-14 12:47 | 50.04157 | 8.55593 | 362 ft | 22 kts | 250° |
| 2026-04-14 12:48 | 50.04105 | 8.55374 | 364 ft | 22 kts | 249° |
| 2026-04-14 12:48 | 50.04052 | 8.55156 | 365 ft | 22 kts | 250° |
| 2026-04-14 12:48 | 50.04000 | 8.54937 | 362 ft | 22 kts | 250° |
| 2026-04-14 12:48 | 50.03947 | 8.54718 | 361 ft | 22 kts | 248° |
| 2026-04-14 12:49 | 50.03894 | 8.54503 | 360 ft | 22 kts | 249° |
| 2026-04-14 12:49 | 50.03827 | 8.54296 | 358 ft | 22 kts | 235° |
| 2026-04-14 12:49 | 50.03767 | 8.54083 | 352 ft | 22 kts | 251° |
| 2026-04-14 12:49 | 50.03715 | 8.53864 | 358 ft | 22 kts | 250° |
| 2026-04-14 12:50 | 50.03668 | 8.53665 | 351 ft | 15 kts | 248° |
| 2026-04-14 12:50 | 50.03775 | 8.53521 | 355 ft | 8 kts | 339° |
| 2026-04-14 12:50 | 50.03805 | 8.53503 | 352 ft | 1 kts | 339° |
| 2026-04-14 12:51 | 50.03810 | 8.53500 | 353 ft | 0 kts | 339° |
| 2026-04-14 12:51 | 50.03812 | 8.53500 | 353 ft | 0 kts | 339° |
| 2026-04-14 12:51 | 50.03812 | 8.53499 | 353 ft | 0 kts | 339° |